sensor_id;sensor_type;location;lat;lon;timestamp;temperature;humidity
66835;HTU21D;53743;51.100;5.874;2023-07-09T00:00:48;26.19;61.49
66835;HTU21D;53743;51.100;5.874;2023-07-09T00:01:51;26.16;61.47
66835;HTU21D;53743;51.100;5.874;2023-07-09T00:02:52;26.13;61.43
66835;HTU21D;53743;51.100;5.874;2023-07-09T00:03:56;26.12;61.44
66835;HTU21D;53743;51.100;5.874;2023-07-09T00:04:57;26.12;61.47
66835;HTU21D;53743;51.100;5.874;2023-07-09T00:05:59;26.11;61.58
66835;HTU21D;53743;51.100;5.874;2023-07-09T00:07:03;26.11;61.60
66835;HTU21D;53743;51.100;5.874;2023-07-09T00:08:24;26.08;61.59
66835;HTU21D;53743;51.100;5.874;2023-07-09T00:09:28;26.07;61.56
66835;HTU21D;53743;51.100;5.874;2023-07-09T00:10:30;26.08;61.60
66835;HTU21D;53743;51.100;5.874;2023-07-09T00:11:31;26.07;61.63
66835;HTU21D;53743;51.100;5.874;2023-07-09T00:12:33;26.06;61.65
66835;HTU21D;53743;51.100;5.874;2023-07-09T00:13:35;26.04;61.73
66835;HTU21D;53743;51.100;5.874;2023-07-09T00:14:37;26.03;61.79
66835;HTU21D;53743;51.100;5.874;2023-07-09T00:15:38;26.02;61.74
66835;HTU21D;53743;51.100;5.874;2023-07-09T00:16:43;26.02;61.73
66835;HTU21D;53743;51.100;5.874;2023-07-09T00:17:48;26.01;61.85
66835;HTU21D;53743;51.100;5.874;2023-07-09T00:18:51;25.98;61.94
66835;HTU21D;53743;51.100;5.874;2023-07-09T00:19:54;25.98;62.05
66835;HTU21D;53743;51.100;5.874;2023-07-09T00:20:56;25.95;62.19
66835;HTU21D;53743;51.100;5.874;2023-07-09T00:21:59;25.92;62.31
66835;HTU21D;53743;51.100;5.874;2023-07-09T00:23:01;25.91;62.47
66835;HTU21D;53743;51.100;5.874;2023-07-09T00:24:05;25.88;62.54
66835;HTU21D;53743;51.100;5.874;2023-07-09T00:25:10;25.87;62.64
66835;HTU21D;53743;51.100;5.874;2023-07-09T00:26:15;25.83;62.74
66835;HTU21D;53743;51.100;5.874;2023-07-09T00:27:28;25.81;62.89
66835;HTU21D;53743;51.100;5.874;2023-07-09T00:28:31;25.79;63.10
66835;HTU21D;53743;51.100;5.874;2023-07-09T00:29:33;25.76;63.18
66835;HTU21D;53743;51.100;5.874;2023-07-09T00:30:34;25.75;63.29
66835;HTU21D;53743;51.100;5.874;2023-07-09T00:31:36;25.72;63.43
66835;HTU21D;53743;51.100;5.874;2023-07-09T00:32:39;25.68;63.53
66835;HTU21D;53743;51.100;5.874;2023-07-09T00:33:44;25.65;63.66
66835;HTU21D;53743;51.100;5.874;2023-07-09T00:34:47;25.62;63.82
66835;HTU21D;53743;51.100;5.874;2023-07-09T00:35:51;25.59;64.00
66835;HTU21D;53743;51.100;5.874;2023-07-09T00:36:53;25.56;64.20
66835;HTU21D;53743;51.100;5.874;2023-07-09T00:37:55;25.52;64.37
66835;HTU21D;53743;51.100;5.874;2023-07-09T00:39:01;25.49;64.49
66835;HTU21D;53743;51.100;5.874;2023-07-09T00:40:13;25.45;64.66
66835;HTU21D;53743;51.100;5.874;2023-07-09T00:41:19;25.45;64.88
66835;HTU21D;53743;51.100;5.874;2023-07-09T00:42:23;25.43;64.96
66835;HTU21D;53743;51.100;5.874;2023-07-09T00:43:24;25.39;65.05
66835;HTU21D;53743;51.100;5.874;2023-07-09T00:44:31;25.39;65.14
66835;HTU21D;53743;51.100;5.874;2023-07-09T00:45:34;25.38;65.17
66835;HTU21D;53743;51.100;5.874;2023-07-09T00:48:34;25.38;65.32
66835;HTU21D;53743;51.100;5.874;2023-07-09T00:49:39;25.39;65.37
66835;HTU21D;53743;51.100;5.874;2023-07-09T00:50:51;25.39;65.34
66835;HTU21D;53743;51.100;5.874;2023-07-09T00:51:54;25.39;65.31
66835;HTU21D;53743;51.100;5.874;2023-07-09T00:53:02;25.37;65.37
66835;HTU21D;53743;51.100;5.874;2023-07-09T00:54:19;25.36;65.42
66835;HTU21D;53743;51.100;5.874;2023-07-09T00:55:29;25.34;65.49
66835;HTU21D;53743;51.100;5.874;2023-07-09T00:56:40;25.33;65.58
66835;HTU21D;53743;51.100;5.874;2023-07-09T00:57:48;25.32;65.67
66835;HTU21D;53743;51.100;5.874;2023-07-09T00:59:01;25.29;65.78
66835;HTU21D;53743;51.100;5.874;2023-07-09T01:00:11;25.25;65.96
66835;HTU21D;53743;51.100;5.874;2023-07-09T01:01:19;25.23;66.12
66835;HTU21D;53743;51.100;5.874;2023-07-09T01:02:21;25.21;66.27
66835;HTU21D;53743;51.100;5.874;2023-07-09T01:03:33;25.18;66.39
66835;HTU21D;53743;51.100;5.874;2023-07-09T01:04:36;25.15;66.55
66835;HTU21D;53743;51.100;5.874;2023-07-09T01:05:40;25.14;66.72
66835;HTU21D;53743;51.100;5.874;2023-07-09T01:06:45;25.09;66.88
66835;HTU21D;53743;51.100;5.874;2023-07-09T01:07:51;25.08;67.07
66835;HTU21D;53743;51.100;5.874;2023-07-09T01:08:54;25.04;67.22
66835;HTU21D;53743;51.100;5.874;2023-07-09T01:09:56;25.02;67.31
66835;HTU21D;53743;51.100;5.874;2023-07-09T01:10:58;25.03;67.45
66835;HTU21D;53743;51.100;5.874;2023-07-09T01:12:01;25.02;67.48
66835;HTU21D;53743;51.100;5.874;2023-07-09T01:13:06;25.00;67.60
66835;HTU21D;53743;51.100;5.874;2023-07-09T01:14:14;24.98;67.65
66835;HTU21D;53743;51.100;5.874;2023-07-09T01:15:19;24.98;67.63
66835;HTU21D;53743;51.100;5.874;2023-07-09T01:16:27;24.98;67.65
66835;HTU21D;53743;51.100;5.874;2023-07-09T01:17:30;24.97;67.65
66835;HTU21D;53743;51.100;5.874;2023-07-09T01:18:32;24.95;67.62
66835;HTU21D;53743;51.100;5.874;2023-07-09T01:19:38;24.95;67.65
66835;HTU21D;53743;51.100;5.874;2023-07-09T01:20:44;24.93;67.67
66835;HTU21D;53743;51.100;5.874;2023-07-09T01:21:48;24.94;67.75
66835;HTU21D;53743;51.100;5.874;2023-07-09T01:22:52;24.93;67.74
66835;HTU21D;53743;51.100;5.874;2023-07-09T01:23:55;24.93;67.72
66835;HTU21D;53743;51.100;5.874;2023-07-09T01:24:59;24.93;67.61
66835;HTU21D;53743;51.100;5.874;2023-07-09T01:26:03;24.93;67.52
66835;HTU21D;53743;51.100;5.874;2023-07-09T01:27:06;24.92;67.56
66835;HTU21D;53743;51.100;5.874;2023-07-09T01:28:07;24.92;67.61
66835;HTU21D;53743;51.100;5.874;2023-07-09T01:29:10;24.91;67.65
66835;HTU21D;53743;51.100;5.874;2023-07-09T01:30:15;24.91;67.68
66835;HTU21D;53743;51.100;5.874;2023-07-09T01:31:23;24.90;67.63
66835;HTU21D;53743;51.100;5.874;2023-07-09T01:32:25;24.91;67.62
66835;HTU21D;53743;51.100;5.874;2023-07-09T01:33:28;24.91;67.63
66835;HTU21D;53743;51.100;5.874;2023-07-09T01:34:29;24.92;67.57
66835;HTU21D;53743;51.100;5.874;2023-07-09T01:35:33;24.92;67.44
66835;HTU21D;53743;51.100;5.874;2023-07-09T01:36:37;24.92;67.44
66835;HTU21D;53743;51.100;5.874;2023-07-09T01:37:42;24.93;67.43
66835;HTU21D;53743;51.100;5.874;2023-07-09T01:38:45;24.92;67.46
66835;HTU21D;53743;51.100;5.874;2023-07-09T01:39:46;24.92;67.49
66835;HTU21D;53743;51.100;5.874;2023-07-09T01:40:49;24.90;67.49
66835;HTU21D;53743;51.100;5.874;2023-07-09T01:41:50;24.90;67.51
66835;HTU21D;53743;51.100;5.874;2023-07-09T01:42:55;24.88;67.58
66835;HTU21D;53743;51.100;5.874;2023-07-09T01:43:58;24.88;67.43
66835;HTU21D;53743;51.100;5.874;2023-07-09T01:45:00;24.87;67.37
66835;HTU21D;53743;51.100;5.874;2023-07-09T01:46:06;24.84;67.43
66835;HTU21D;53743;51.100;5.874;2023-07-09T01:47:09;24.84;67.55
66835;HTU21D;53743;51.100;5.874;2023-07-09T01:48:10;24.84;67.35
66835;HTU21D;53743;51.100;5.874;2023-07-09T01:49:16;24.82;67.48
66835;HTU21D;53743;51.100;5.874;2023-07-09T01:50:18;24.80;67.57
66835;HTU21D;53743;51.100;5.874;2023-07-09T01:51:20;24.78;67.55
66835;HTU21D;53743;51.100;5.874;2023-07-09T01:52:28;24.76;67.63
66835;HTU21D;53743;51.100;5.874;2023-07-09T01:53:34;24.75;67.57
66835;HTU21D;53743;51.100;5.874;2023-07-09T01:54:36;24.74;67.70
66835;HTU21D;53743;51.100;5.874;2023-07-09T01:55:41;24.73;67.81
66835;HTU21D;53743;51.100;5.874;2023-07-09T01:56:42;24.72;67.87
66835;HTU21D;53743;51.100;5.874;2023-07-09T01:57:44;24.71;67.87
66835;HTU21D;53743;51.100;5.874;2023-07-09T01:58:46;24.73;67.91
66835;HTU21D;53743;51.100;5.874;2023-07-09T01:59:48;24.73;67.88
66835;HTU21D;53743;51.100;5.874;2023-07-09T02:00:51;24.72;67.87
66835;HTU21D;53743;51.100;5.874;2023-07-09T02:01:52;24.73;67.83
66835;HTU21D;53743;51.100;5.874;2023-07-09T02:02:58;24.72;67.81
66835;HTU21D;53743;51.100;5.874;2023-07-09T02:04:00;24.71;67.65
66835;HTU21D;53743;51.100;5.874;2023-07-09T02:05:06;24.70;67.54
66835;HTU21D;53743;51.100;5.874;2023-07-09T02:06:07;24.72;67.36
66835;HTU21D;53743;51.100;5.874;2023-07-09T02:07:11;24.71;67.27
66835;HTU21D;53743;51.100;5.874;2023-07-09T02:08:12;24.71;67.30
66835;HTU21D;53743;51.100;5.874;2023-07-09T02:09:16;24.71;67.52
66835;HTU21D;53743;51.100;5.874;2023-07-09T02:10:17;24.71;67.42
66835;HTU21D;53743;51.100;5.874;2023-07-09T02:11:19;24.69;67.46
66835;HTU21D;53743;51.100;5.874;2023-07-09T02:12:21;24.68;67.55
66835;HTU21D;53743;51.100;5.874;2023-07-09T02:13:22;24.69;67.55
66835;HTU21D;53743;51.100;5.874;2023-07-09T02:14:24;24.68;67.84
66835;HTU21D;53743;51.100;5.874;2023-07-09T02:15:25;24.65;67.74
66835;HTU21D;53743;51.100;5.874;2023-07-09T02:16:27;24.64;67.75
66835;HTU21D;53743;51.100;5.874;2023-07-09T02:17:28;24.61;67.92
66835;HTU21D;53743;51.100;5.874;2023-07-09T02:18:30;24.63;67.78
66835;HTU21D;53743;51.100;5.874;2023-07-09T02:19:35;24.62;67.67
66835;HTU21D;53743;51.100;5.874;2023-07-09T02:20:38;24.59;67.62
66835;HTU21D;53743;51.100;5.874;2023-07-09T02:21:40;24.60;67.59
66835;HTU21D;53743;51.100;5.874;2023-07-09T02:22:43;24.60;67.67
66835;HTU21D;53743;51.100;5.874;2023-07-09T02:23:45;24.60;67.81
66835;HTU21D;53743;51.100;5.874;2023-07-09T02:24:48;24.59;67.82
66835;HTU21D;53743;51.100;5.874;2023-07-09T02:25:49;24.57;67.83
66835;HTU21D;53743;51.100;5.874;2023-07-09T02:26:52;24.58;67.74
66835;HTU21D;53743;51.100;5.874;2023-07-09T02:27:53;24.57;67.75
66835;HTU21D;53743;51.100;5.874;2023-07-09T02:28:55;24.60;67.61
66835;HTU21D;53743;51.100;5.874;2023-07-09T02:29:56;24.58;67.57
66835;HTU21D;53743;51.100;5.874;2023-07-09T02:30:58;24.60;67.65
66835;HTU21D;53743;51.100;5.874;2023-07-09T02:32:01;24.58;67.79
66835;HTU21D;53743;51.100;5.874;2023-07-09T02:33:04;24.58;67.90
66835;HTU21D;53743;51.100;5.874;2023-07-09T02:34:06;24.58;67.96
66835;HTU21D;53743;51.100;5.874;2023-07-09T02:35:08;24.57;68.01
66835;HTU21D;53743;51.100;5.874;2023-07-09T02:36:10;24.55;68.03
66835;HTU21D;53743;51.100;5.874;2023-07-09T02:37:11;24.55;68.02
66835;HTU21D;53743;51.100;5.874;2023-07-09T02:38:13;24.55;68.10
66835;HTU21D;53743;51.100;5.874;2023-07-09T02:39:14;24.50;68.17
66835;HTU21D;53743;51.100;5.874;2023-07-09T02:40:18;24.49;68.27
66835;HTU21D;53743;51.100;5.874;2023-07-09T02:41:20;24.46;68.43
66835;HTU21D;53743;51.100;5.874;2023-07-09T02:42:23;24.44;68.48
66835;HTU21D;53743;51.100;5.874;2023-07-09T02:43:24;24.43;68.48
66835;HTU21D;53743;51.100;5.874;2023-07-09T02:44:26;24.42;68.54
66835;HTU21D;53743;51.100;5.874;2023-07-09T02:45:27;24.40;68.58
66835;HTU21D;53743;51.100;5.874;2023-07-09T02:46:29;24.40;68.65
66835;HTU21D;53743;51.100;5.874;2023-07-09T02:47:30;24.39;68.74
66835;HTU21D;53743;51.100;5.874;2023-07-09T02:48:33;24.36;68.88
66835;HTU21D;53743;51.100;5.874;2023-07-09T02:49:36;24.35;69.00
66835;HTU21D;53743;51.100;5.874;2023-07-09T02:50:37;24.31;69.12
66835;HTU21D;53743;51.100;5.874;2023-07-09T02:51:40;24.30;69.18
66835;HTU21D;53743;51.100;5.874;2023-07-09T02:52:41;24.28;69.27
66835;HTU21D;53743;51.100;5.874;2023-07-09T02:53:45;24.25;69.34
66835;HTU21D;53743;51.100;5.874;2023-07-09T02:54:46;24.24;69.39
66835;HTU21D;53743;51.100;5.874;2023-07-09T02:55:49;24.21;69.48
66835;HTU21D;53743;51.100;5.874;2023-07-09T02:56:51;24.20;69.54
66835;HTU21D;53743;51.100;5.874;2023-07-09T02:57:52;24.18;69.57
66835;HTU21D;53743;51.100;5.874;2023-07-09T02:58:54;24.16;69.65
66835;HTU21D;53743;51.100;5.874;2023-07-09T02:59:55;24.14;69.69
66835;HTU21D;53743;51.100;5.874;2023-07-09T03:00:58;24.13;69.86
66835;HTU21D;53743;51.100;5.874;2023-07-09T03:02:00;24.10;70.01
66835;HTU21D;53743;51.100;5.874;2023-07-09T03:03:04;24.05;70.15
66835;HTU21D;53743;51.100;5.874;2023-07-09T03:04:05;24.04;70.27
66835;HTU21D;53743;51.100;5.874;2023-07-09T03:05:08;24.05;70.34
66835;HTU21D;53743;51.100;5.874;2023-07-09T03:06:11;24.03;70.44
66835;HTU21D;53743;51.100;5.874;2023-07-09T03:07:13;24.02;70.37
66835;HTU21D;53743;51.100;5.874;2023-07-09T03:08:14;24.03;70.40
66835;HTU21D;53743;51.100;5.874;2023-07-09T03:09:16;24.03;70.50
66835;HTU21D;53743;51.100;5.874;2023-07-09T03:10:17;24.02;70.64
66835;HTU21D;53743;51.100;5.874;2023-07-09T03:11:21;24.02;70.80
66835;HTU21D;53743;51.100;5.874;2023-07-09T03:12:22;24.02;70.96
66835;HTU21D;53743;51.100;5.874;2023-07-09T03:13:25;24.00;71.08
66835;HTU21D;53743;51.100;5.874;2023-07-09T03:14:26;24.01;71.22
66835;HTU21D;53743;51.100;5.874;2023-07-09T03:15:28;24.02;71.31
66835;HTU21D;53743;51.100;5.874;2023-07-09T03:16:31;24.01;71.33
66835;HTU21D;53743;51.100;5.874;2023-07-09T03:17:34;24.00;71.45
66835;HTU21D;53743;51.100;5.874;2023-07-09T03:18:35;23.99;71.50
66835;HTU21D;53743;51.100;5.874;2023-07-09T03:19:38;23.99;71.48
66835;HTU21D;53743;51.100;5.874;2023-07-09T03:20:39;23.99;71.51
66835;HTU21D;53743;51.100;5.874;2023-07-09T03:21:41;23.99;71.51
66835;HTU21D;53743;51.100;5.874;2023-07-09T03:22:42;23.99;71.53
66835;HTU21D;53743;51.100;5.874;2023-07-09T03:23:45;23.99;72.09
66835;HTU21D;53743;51.100;5.874;2023-07-09T03:24:46;23.97;71.67
66835;HTU21D;53743;51.100;5.874;2023-07-09T03:25:48;23.92;71.81
66835;HTU21D;53743;51.100;5.874;2023-07-09T03:26:51;23.91;71.96
66835;HTU21D;53743;51.100;5.874;2023-07-09T03:27:53;23.91;71.95
66835;HTU21D;53743;51.100;5.874;2023-07-09T03:28:55;23.90;71.98
66835;HTU21D;53743;51.100;5.874;2023-07-09T03:29:57;23.90;72.03
66835;HTU21D;53743;51.100;5.874;2023-07-09T03:30:59;23.91;71.99
66835;HTU21D;53743;51.100;5.874;2023-07-09T03:32:01;23.91;71.96
66835;HTU21D;53743;51.100;5.874;2023-07-09T03:33:03;23.91;71.96
66835;HTU21D;53743;51.100;5.874;2023-07-09T03:34:05;23.92;71.93
66835;HTU21D;53743;51.100;5.874;2023-07-09T03:35:07;23.94;71.93
66835;HTU21D;53743;51.100;5.874;2023-07-09T03:36:09;23.94;71.92
66835;HTU21D;53743;51.100;5.874;2023-07-09T03:37:11;23.92;71.90
66835;HTU21D;53743;51.100;5.874;2023-07-09T03:38:13;23.94;71.91
66835;HTU21D;53743;51.100;5.874;2023-07-09T03:39:15;23.95;71.90
66835;HTU21D;53743;51.100;5.874;2023-07-09T03:40:21;23.95;71.85
66835;HTU21D;53743;51.100;5.874;2023-07-09T03:41:24;23.97;71.79
66835;HTU21D;53743;51.100;5.874;2023-07-09T03:42:26;23.97;71.74
66835;HTU21D;53743;51.100;5.874;2023-07-09T03:43:28;23.98;71.66
66835;HTU21D;53743;51.100;5.874;2023-07-09T03:44:30;23.97;71.55
66835;HTU21D;53743;51.100;5.874;2023-07-09T03:45:35;23.99;71.51
66835;HTU21D;53743;51.100;5.874;2023-07-09T03:46:37;23.99;71.50
66835;HTU21D;53743;51.100;5.874;2023-07-09T03:47:39;23.99;71.42
66835;HTU21D;53743;51.100;5.874;2023-07-09T03:48:40;24.00;71.32
66835;HTU21D;53743;51.100;5.874;2023-07-09T03:49:42;23.98;71.29
66835;HTU21D;53743;51.100;5.874;2023-07-09T03:50:45;23.99;71.33
66835;HTU21D;53743;51.100;5.874;2023-07-09T03:51:48;23.99;71.26
66835;HTU21D;53743;51.100;5.874;2023-07-09T03:52:49;24.00;71.16
66835;HTU21D;53743;51.100;5.874;2023-07-09T03:53:51;24.01;71.02
66835;HTU21D;53743;51.100;5.874;2023-07-09T03:54:52;24.02;70.97
66835;HTU21D;53743;51.100;5.874;2023-07-09T03:55:56;24.02;70.92
66835;HTU21D;53743;51.100;5.874;2023-07-09T03:56:59;24.03;70.89
66835;HTU21D;53743;51.100;5.874;2023-07-09T03:58:02;24.04;70.90
66835;HTU21D;53743;51.100;5.874;2023-07-09T03:59:03;24.04;70.95
66835;HTU21D;53743;51.100;5.874;2023-07-09T04:00:07;24.03;70.90
66835;HTU21D;53743;51.100;5.874;2023-07-09T04:01:16;24.04;70.84
66835;HTU21D;53743;51.100;5.874;2023-07-09T04:02:18;24.03;70.86
66835;HTU21D;53743;51.100;5.874;2023-07-09T04:03:19;24.04;70.84
66835;HTU21D;53743;51.100;5.874;2023-07-09T04:04:22;24.04;70.78
66835;HTU21D;53743;51.100;5.874;2023-07-09T04:05:23;24.03;70.78
66835;HTU21D;53743;51.100;5.874;2023-07-09T04:06:26;24.05;70.89
66835;HTU21D;53743;51.100;5.874;2023-07-09T04:07:27;24.06;70.93
66835;HTU21D;53743;51.100;5.874;2023-07-09T04:08:29;24.08;70.92
66835;HTU21D;53743;51.100;5.874;2023-07-09T04:09:30;24.10;70.84
66835;HTU21D;53743;51.100;5.874;2023-07-09T04:10:32;24.11;70.68
66835;HTU21D;53743;51.100;5.874;2023-07-09T04:11:33;24.12;70.69
66835;HTU21D;53743;51.100;5.874;2023-07-09T04:12:35;24.13;70.77
66835;HTU21D;53743;51.100;5.874;2023-07-09T04:13:38;24.14;70.71
66835;HTU21D;53743;51.100;5.874;2023-07-09T04:14:41;24.17;70.65
66835;HTU21D;53743;51.100;5.874;2023-07-09T04:15:42;24.19;70.55
66835;HTU21D;53743;51.100;5.874;2023-07-09T04:16:44;0.00;70.42
66835;HTU21D;53743;51.100;5.874;2023-07-09T04:17:45;24.21;70.35
66835;HTU21D;53743;51.100;5.874;2023-07-09T04:18:47;24.26;70.30
66835;HTU21D;53743;51.100;5.874;2023-07-09T04:19:50;24.28;70.01
66835;HTU21D;53743;51.100;5.874;2023-07-09T04:20:52;24.29;69.96
66835;HTU21D;53743;51.100;5.874;2023-07-09T04:21:54;24.30;70.09
66835;HTU21D;53743;51.100;5.874;2023-07-09T04:22:57;24.30;69.97
66835;HTU21D;53743;51.100;5.874;2023-07-09T04:23:58;24.31;69.99
66835;HTU21D;53743;51.100;5.874;2023-07-09T04:25:00;24.34;69.97
66835;HTU21D;53743;51.100;5.874;2023-07-09T04:26:03;24.36;69.84
66835;HTU21D;53743;51.100;5.874;2023-07-09T04:27:10;24.40;69.72
66835;HTU21D;53743;51.100;5.874;2023-07-09T04:28:11;24.44;69.69
66835;HTU21D;53743;51.100;5.874;2023-07-09T04:29:15;24.46;69.59
66835;HTU21D;53743;51.100;5.874;2023-07-09T04:30:16;24.49;69.48
66835;HTU21D;53743;51.100;5.874;2023-07-09T04:31:18;24.54;69.33
66835;HTU21D;53743;51.100;5.874;2023-07-09T04:32:20;24.56;69.25
66835;HTU21D;53743;51.100;5.874;2023-07-09T04:33:22;24.59;69.19
66835;HTU21D;53743;51.100;5.874;2023-07-09T04:34:24;24.61;69.14
66835;HTU21D;53743;51.100;5.874;2023-07-09T04:35:26;24.63;69.07
66835;HTU21D;53743;51.100;5.874;2023-07-09T04:36:27;24.65;68.94
66835;HTU21D;53743;51.100;5.874;2023-07-09T04:37:29;24.69;68.78
66835;HTU21D;53743;51.100;5.874;2023-07-09T04:38:30;24.71;68.68
66835;HTU21D;53743;51.100;5.874;2023-07-09T04:39:32;24.73;68.46
66835;HTU21D;53743;51.100;5.874;2023-07-09T04:40:33;24.75;68.39
66835;HTU21D;53743;51.100;5.874;2023-07-09T04:41:35;24.76;68.43
66835;HTU21D;53743;51.100;5.874;2023-07-09T04:42:37;24.79;68.48
66835;HTU21D;53743;51.100;5.874;2023-07-09T04:43:40;24.83;68.04
66835;HTU21D;53743;51.100;5.874;2023-07-09T04:44:44;24.83;67.94
66835;HTU21D;53743;51.100;5.874;2023-07-09T04:45:47;24.85;67.84
66835;HTU21D;53743;51.100;5.874;2023-07-09T04:46:48;24.88;67.72
66835;HTU21D;53743;51.100;5.874;2023-07-09T04:47:50;24.92;67.66
66835;HTU21D;53743;51.100;5.874;2023-07-09T04:48:53;24.94;67.27
66835;HTU21D;53743;51.100;5.874;2023-07-09T04:49:56;24.97;67.08
66835;HTU21D;53743;51.100;5.874;2023-07-09T04:50:57;24.97;66.92
66835;HTU21D;53743;51.100;5.874;2023-07-09T04:52:00;24.99;66.98
66835;HTU21D;53743;51.100;5.874;2023-07-09T04:53:01;25.04;67.04
66835;HTU21D;53743;51.100;5.874;2023-07-09T04:54:04;25.07;67.01
66835;HTU21D;53743;51.100;5.874;2023-07-09T04:55:06;25.13;67.01
66835;HTU21D;53743;51.100;5.874;2023-07-09T04:56:09;25.19;66.94
66835;HTU21D;53743;51.100;5.874;2023-07-09T04:57:11;25.25;66.81
66835;HTU21D;53743;51.100;5.874;2023-07-09T04:58:13;25.29;66.89
66835;HTU21D;53743;51.100;5.874;2023-07-09T04:59:15;25.35;66.85
66835;HTU21D;53743;51.100;5.874;2023-07-09T05:00:19;25.40;66.65
66835;HTU21D;53743;51.100;5.874;2023-07-09T05:01:20;25.48;66.33
66835;HTU21D;53743;51.100;5.874;2023-07-09T05:02:22;25.52;66.01
66835;HTU21D;53743;51.100;5.874;2023-07-09T05:03:23;25.57;65.73
66835;HTU21D;53743;51.100;5.874;2023-07-09T05:04:25;25.62;65.50
66835;HTU21D;53743;51.100;5.874;2023-07-09T05:05:26;25.67;65.30
66835;HTU21D;53743;51.100;5.874;2023-07-09T05:06:28;25.73;64.92
66835;HTU21D;53743;51.100;5.874;2023-07-09T05:07:29;25.78;64.57
66835;HTU21D;53743;51.100;5.874;2023-07-09T05:08:33;25.84;64.47
66835;HTU21D;53743;51.100;5.874;2023-07-09T05:09:34;25.90;64.47
66835;HTU21D;53743;51.100;5.874;2023-07-09T05:10:41;26.02;64.11
66835;HTU21D;53743;51.100;5.874;2023-07-09T05:11:42;26.18;63.58
66835;HTU21D;53743;51.100;5.874;2023-07-09T05:12:49;26.47;62.66
66835;HTU21D;53743;51.100;5.874;2023-07-09T05:13:50;26.80;61.41
66835;HTU21D;53743;51.100;5.874;2023-07-09T05:14:54;27.06;60.03
66835;HTU21D;53743;51.100;5.874;2023-07-09T05:15:57;27.21;59.19
66835;HTU21D;53743;51.100;5.874;2023-07-09T05:16:59;27.23;58.97
66835;HTU21D;53743;51.100;5.874;2023-07-09T05:18:00;27.24;58.82
66835;HTU21D;53743;51.100;5.874;2023-07-09T05:19:03;27.27;58.79
66835;HTU21D;53743;51.100;5.874;2023-07-09T05:20:05;27.37;58.57
66835;HTU21D;53743;51.100;5.874;2023-07-09T05:21:08;27.57;58.10
66835;HTU21D;53743;51.100;5.874;2023-07-09T05:22:09;27.87;56.98
66835;HTU21D;53743;51.100;5.874;2023-07-09T05:23:11;28.23;56.07
66835;HTU21D;53743;51.100;5.874;2023-07-09T05:24:12;28.59;54.71
66835;HTU21D;53743;51.100;5.874;2023-07-09T05:25:15;29.00;53.17
66835;HTU21D;53743;51.100;5.874;2023-07-09T05:26:16;29.37;51.78
66835;HTU21D;53743;51.100;5.874;2023-07-09T05:27:18;29.78;50.50
66835;HTU21D;53743;51.100;5.874;2023-07-09T05:28:19;30.16;49.26
66835;HTU21D;53743;51.100;5.874;2023-07-09T05:29:21;30.54;47.73
66835;HTU21D;53743;51.100;5.874;2023-07-09T05:30:22;30.84;46.74
66835;HTU21D;53743;51.100;5.874;2023-07-09T05:31:26;31.15;45.48
66835;HTU21D;53743;51.100;5.874;2023-07-09T05:32:27;31.41;44.09
66835;HTU21D;53743;51.100;5.874;2023-07-09T05:33:29;31.63;43.88
66835;HTU21D;53743;51.100;5.874;2023-07-09T05:34:30;31.94;43.05
66835;HTU21D;53743;51.100;5.874;2023-07-09T05:35:32;32.25;42.21
66835;HTU21D;53743;51.100;5.874;2023-07-09T05:36:34;32.52;41.63
66835;HTU21D;53743;51.100;5.874;2023-07-09T05:37:36;32.83;40.65
66835;HTU21D;53743;51.100;5.874;2023-07-09T05:38:38;33.15;40.00
66835;HTU21D;53743;51.100;5.874;2023-07-09T05:39:40;33.43;39.21
66835;HTU21D;53743;51.100;5.874;2023-07-09T05:40:42;33.73;38.22
66835;HTU21D;53743;51.100;5.874;2023-07-09T05:41:45;34.01;37.91
66835;HTU21D;53743;51.100;5.874;2023-07-09T05:42:46;34.27;37.29
66835;HTU21D;53743;51.100;5.874;2023-07-09T05:43:50;34.57;36.67
66835;HTU21D;53743;51.100;5.874;2023-07-09T05:44:52;34.89;35.99
66835;HTU21D;53743;51.100;5.874;2023-07-09T05:45:54;35.19;35.21
66835;HTU21D;53743;51.100;5.874;2023-07-09T05:46:56;35.48;34.46
66835;HTU21D;53743;51.100;5.874;2023-07-09T05:48:00;35.68;33.86
66835;HTU21D;53743;51.100;5.874;2023-07-09T05:49:01;35.85;33.38
66835;HTU21D;53743;51.100;5.874;2023-07-09T05:50:04;35.95;33.19
66835;HTU21D;53743;51.100;5.874;2023-07-09T05:51:06;36.00;32.99
66835;HTU21D;53743;51.100;5.874;2023-07-09T05:52:08;36.08;31.99
66835;HTU21D;53743;51.100;5.874;2023-07-09T05:53:09;36.16;32.35
66835;HTU21D;53743;51.100;5.874;2023-07-09T05:54:11;36.17;32.28
66835;HTU21D;53743;51.100;5.874;2023-07-09T05:55:12;36.24;32.10
66835;HTU21D;53743;51.100;5.874;2023-07-09T05:56:15;36.31;32.08
66835;HTU21D;53743;51.100;5.874;2023-07-09T05:57:16;0.00;32.11
66835;HTU21D;53743;51.100;5.874;2023-07-09T05:58:18;36.44;31.38
66835;HTU21D;53743;51.100;5.874;2023-07-09T05:59:20;36.41;32.09
66835;HTU21D;53743;51.100;5.874;2023-07-09T06:00:21;36.43;32.17
66835;HTU21D;53743;51.100;5.874;2023-07-09T06:01:23;36.53;31.92
66835;HTU21D;53743;51.100;5.874;2023-07-09T06:02:27;0.00;31.82
66835;HTU21D;53743;51.100;5.874;2023-07-09T06:03:29;36.58;31.91
66835;HTU21D;53743;51.100;5.874;2023-07-09T06:04:31;36.69;31.77
66835;HTU21D;53743;51.100;5.874;2023-07-09T06:05:33;36.86;31.42
66835;HTU21D;53743;51.100;5.874;2023-07-09T06:06:34;36.96;30.64
66835;HTU21D;53743;51.100;5.874;2023-07-09T06:07:36;37.03;0.00
66835;HTU21D;53743;51.100;5.874;2023-07-09T06:08:37;37.07;30.78
66835;HTU21D;53743;51.100;5.874;2023-07-09T06:09:40;37.14;30.64
66835;HTU21D;53743;51.100;5.874;2023-07-09T06:10:50;37.26;0.00
66835;HTU21D;53743;51.100;5.874;2023-07-09T06:11:53;37.38;30.28
66835;HTU21D;53743;51.100;5.874;2023-07-09T06:12:54;37.56;28.63
66835;HTU21D;53743;51.100;5.874;2023-07-09T06:13:58;37.78;29.62
66835;HTU21D;53743;51.100;5.874;2023-07-09T06:14:59;37.96;29.37
66835;HTU21D;53743;51.100;5.874;2023-07-09T06:16:01;38.23;29.06
66835;HTU21D;53743;51.100;5.874;2023-07-09T06:17:03;38.48;28.65
66835;HTU21D;53743;51.100;5.874;2023-07-09T06:18:07;38.69;0.00
66835;HTU21D;53743;51.100;5.874;2023-07-09T06:19:08;38.92;27.78
66835;HTU21D;53743;51.100;5.874;2023-07-09T06:20:11;39.09;27.10
66835;HTU21D;53743;51.100;5.874;2023-07-09T06:21:12;39.15;26.99
66835;HTU21D;53743;51.100;5.874;2023-07-09T06:22:14;39.26;26.88
66835;HTU21D;53743;51.100;5.874;2023-07-09T06:23:16;39.39;26.71
66835;HTU21D;53743;51.100;5.874;2023-07-09T06:24:17;0.00;26.31
66835;HTU21D;53743;51.100;5.874;2023-07-09T06:25:19;39.52;25.63
66835;HTU21D;53743;51.100;5.874;2023-07-09T06:26:20;39.37;26.01
66835;HTU21D;53743;51.100;5.874;2023-07-09T06:27:22;39.21;26.22
66835;HTU21D;53743;51.100;5.874;2023-07-09T06:28:26;39.10;26.38
66835;HTU21D;53743;51.100;5.874;2023-07-09T06:29:29;39.12;26.47
66835;HTU21D;53743;51.100;5.874;2023-07-09T06:30:31;39.21;25.85
66835;HTU21D;53743;51.100;5.874;2023-07-09T06:31:33;39.15;25.06
66835;HTU21D;53743;51.100;5.874;2023-07-09T06:32:34;39.07;25.32
66835;HTU21D;53743;51.100;5.874;2023-07-09T06:33:37;38.96;0.00